Time;durP1;ratioP1;P1;durP2;ratioP2;P2;SDS_P1;SDS_P2;PMS_P1;PMS_P2;Temp;Humidity;BMP_temperature;BMP_pressure;BME280_temperature;BME280_humidity;BME280_pressure;Samples;Min_cycle;Max_cycle;Signal;HPM_P1;HPM_P2
2023/12/08 00:03:25;;;;;;;156.10;75.87;;;2.60;99.90;;;;;;10089688;29;20312;-80
2023/12/08 00:08:27;;;;;;;84.47;42.93;;;2.80;99.90;;;;;;10089836;29;20237;-80
2023/12/08 00:13:30;;;;;;;154.57;73.53;;;3.10;99.90;;;;;;10057811;29;20245;-80
2023/12/08 00:18:32;;;;;;;174.83;83.97;;;3.20;99.90;;;;;;10070412;29;20245;-80
2023/12/08 00:23:35;;;;;;;163.97;80.83;;;3.30;99.90;;;;;;10062553;29;20714;-80
2023/12/08 00:28:38;;;;;;;149.27;75.93;;;3.40;99.90;;;;;;10096595;29;20810;-80
2023/12/08 00:33:41;;;;;;;169.83;83.90;;;3.50;99.90;;;;;;10096491;29;20254;-80
2023/12/08 00:38:44;;;;;;;168.87;82.27;;;3.60;99.90;;;;;;10074542;29;20234;-80
2023/12/08 00:43:47;;;;;;;161.77;79.50;;;3.60;99.90;;;;;;10069010;29;20710;-80
2023/12/08 00:48:49;;;;;;;168.17;78.77;;;3.40;99.90;;;;;;10094633;29;20241;-80
2023/12/08 00:53:52;;;;;;;156.80;77.13;;;3.30;99.90;;;;;;10095910;29;20248;-81
2023/12/08 00:58:55;;;;;;;172.33;86.03;;;3.20;99.90;;;;;;10095694;29;20301;-80
2023/12/08 01:03:57;;;;;;;137.43;68.43;;;3.10;99.90;;;;;;10094020;29;20791;-80
2023/12/08 01:09:00;;;;;;;153.13;74.23;;;3.20;99.90;;;;;;10057090;29;20238;-80
2023/12/08 01:14:03;;;;;;;150.20;71.70;;;3.40;99.90;;;;;;10057109;29;20309;-80
2023/12/08 01:19:08;;;;;;;159.37;75.57;;;3.40;99.90;;;;;;10056124;29;20249;-80
2023/12/08 01:24:10;;;;;;;152.53;77.43;;;3.50;99.90;;;;;;10056283;29;20267;-80
2023/12/08 01:29:13;;;;;;;179.63;84.53;;;3.50;99.90;;;;;;10056394;29;21002;-80
2023/12/08 01:34:15;;;;;;;155.70;71.67;;;3.40;99.90;;;;;;10070569;29;20241;-80
2023/12/08 01:39:18;;;;;;;130.03;67.17;;;3.40;99.90;;;;;;10094072;29;20649;-80
2023/12/08 01:44:21;;;;;;;157.73;82.07;;;3.30;99.90;;;;;;10092490;29;20332;-80
2023/12/08 01:49:23;;;;;;;155.60;75.07;;;3.50;99.90;;;;;;10078703;29;20757;-80
2023/12/08 01:54:26;;;;;;;169.20;80.30;;;3.50;99.90;;;;;;10055011;29;20273;-80
2023/12/08 01:59:30;;;;;;;138.37;69.23;;;3.50;99.90;;;;;;10054751;29;20267;-80
2023/12/08 02:04:33;;;;;;;139.33;64.93;;;3.70;99.90;;;;;;10054544;29;20287;-80
2023/12/08 02:09:36;;;;;;;183.97;91.37;;;3.50;99.90;;;;;;10055251;29;20661;-80
2023/12/08 02:14:38;;;;;;;125.20;62.13;;;3.40;99.90;;;;;;10054205;29;20621;-80
2023/12/08 02:19:41;;;;;;;129.57;66.33;;;3.90;99.90;;;;;;10090532;29;20843;-80
2023/12/08 02:24:44;;;;;;;122.17;67.07;;;4.00;99.90;;;;;;10072655;29;20262;-80
2023/12/08 02:29:46;;;;;;;147.00;70.63;;;3.60;99.90;;;;;;10087611;29;20338;-80
2023/12/08 02:34:52;;;;;;;128.73;68.17;;;3.70;99.90;;;;;;10103431;29;20294;-80
2023/12/08 02:39:56;;;;;;;123.27;61.00;;;3.50;99.90;;;;;;10052675;29;20234;-80
2023/12/08 02:44:59;;;;;;;158.33;78.00;;;3.30;99.90;;;;;;10053577;29;20648;-80
2023/12/08 02:50:01;;;;;;;92.97;49.50;;;2.90;99.90;;;;;;10053037;29;20301;-80
2023/12/08 02:55:04;;;;;;;143.77;67.13;;;3.40;99.90;;;;;;10085396;29;20288;-80
2023/12/08 03:00:07;;;;;;;122.80;58.53;;;3.80;99.90;;;;;;10075261;29;20236;-80
2023/12/08 03:05:10;;;;;;;105.00;52.37;;;4.00;99.90;;;;;;10090936;29;20304;-80
2023/12/08 03:10:13;;;;;;;116.00;59.97;;;4.20;99.90;;;;;;10091061;29;20286;-80
2023/12/08 03:15:15;;;;;;;143.27;71.93;;;4.20;99.90;;;;;;10067651;29;20265;-80
2023/12/08 03:20:18;;;;;;;119.90;57.33;;;4.00;99.90;;;;;;10052560;29;20237;-80
2023/12/08 03:25:20;;;;;;;105.10;53.80;;;4.00;99.90;;;;;;10052350;29;20310;-80
2023/12/08 03:30:23;;;;;;;125.80;60.80;;;3.80;99.90;;;;;;10052512;29;20294;-80
2023/12/08 03:35:25;;;;;;;141.90;70.40;;;4.00;99.90;;;;;;10052100;29;20711;-80
2023/12/08 03:40:28;;;;;;;156.60;78.43;;;4.00;99.90;;;;;;10052212;29;20294;-80
2023/12/08 03:45:30;;;;;;;163.77;81.20;;;3.60;99.90;;;;;;10052283;29;20338;-80
2023/12/08 03:50:32;;;;;;;169.83;84.80;;;3.20;99.90;;;;;;10068646;29;20242;-80
2023/12/08 03:55:35;;;;;;;146.03;69.53;;;2.60;99.90;;;;;;10089332;29;20264;-80
2023/12/08 04:00:37;;;;;;;141.50;67.07;;;2.70;99.90;;;;;;10090290;29;20273;-80
2023/12/08 04:05:40;;;;;;;99.37;48.77;;;3.10;99.90;;;;;;10089501;29;20299;-80
2023/12/08 04:10:43;;;;;;;114.20;55.83;;;3.00;99.90;;;;;;10090294;29;20695;-80
2023/12/08 04:15:45;;;;;;;184.80;87.60;;;3.00;99.90;;;;;;10073836;29;20238;-80
2023/12/08 04:20:47;;;;;;;184.80;88.70;;;2.80;99.90;;;;;;10072054;29;20236;-80
2023/12/08 04:25:50;;;;;;;94.90;45.37;;;2.60;99.90;;;;;;10089411;29;20272;-80
2023/12/08 04:30:54;;;;;;;185.07;87.77;;;2.60;99.90;;;;;;10082012;29;20229;-80
2023/12/08 04:35:57;;;;;;;185.40;89.60;;;2.40;99.90;;;;;;10060178;29;20282;-80
2023/12/08 04:40:59;;;;;;;160.60;77.70;;;2.40;99.90;;;;;;10049548;29;20277;-80
2023/12/08 04:46:02;;;;;;;177.03;86.13;;;2.50;99.90;;;;;;10050094;29;20934;-80
2023/12/08 04:51:06;;;;;;;94.80;46.70;;;2.30;99.90;;;;;;10050824;29;20237;-80
2023/12/08 04:56:09;;;;;;;115.07;58.57;;;2.40;99.90;;;;;;10056190;29;20234;-80
2023/12/08 05:01:12;;;;;;;85.70;42.73;;;3.10;99.90;;;;;;10070133;29;20239;-80
2023/12/08 05:06:16;;;;;;;96.07;46.60;;;3.60;99.90;;;;;;10058150;29;20363;-80
2023/12/08 05:11:18;;;;;;;108.50;53.43;;;3.60;99.90;;;;;;10065468;29;20237;-80
2023/12/08 05:16:21;;;;;;;158.80;73.83;;;4.00;99.90;;;;;;10064579;29;21002;-80
2023/12/08 05:21:24;;;;;;;121.17;54.90;;;4.10;99.90;;;;;;10094958;29;20246;-79
2023/12/08 05:26:26;;;;;;;108.23;53.43;;;4.10;99.90;;;;;;10093457;29;20270;-79
2023/12/08 05:31:29;;;;;;;146.53;71.73;;;4.10;99.90;;;;;;10094957;29;20293;-80
2023/12/08 05:36:31;;;;;;;131.43;60.83;;;3.90;99.90;;;;;;10092974;29;20246;-80
2023/12/08 05:41:35;;;;;;;76.57;38.50;;;3.90;99.90;;;;;;10072194;29;20636;-79
2023/12/08 05:46:37;;;;;;;143.63;66.10;;;4.30;99.90;;;;;;10092200;29;20291;-79
2023/12/08 05:51:40;;;;;;;154.47;67.50;;;4.20;99.90;;;;;;10091019;29;20239;-79
2023/12/08 05:56:42;;;;;;;132.93;61.90;;;4.40;99.90;;;;;;10079145;29;20293;-79
2023/12/08 06:01:45;;;;;;;124.40;52.70;;;4.50;99.90;;;;;;10089618;29;20255;-79
2023/12/08 06:06:48;;;;;;;145.30;67.10;;;4.70;99.90;;;;;;10092527;29;20317;-79
2023/12/08 06:11:50;;;;;;;91.63;39.23;;;5.00;99.90;;;;;;10058102;29;20234;-79
2023/12/08 06:16:53;;;;;;;94.70;44.27;;;4.70;99.90;;;;;;10077427;29;20311;-79
2023/12/08 06:21:56;;;;;;;142.77;66.93;;;4.90;99.90;;;;;;10055877;29;20260;-79
2023/12/08 06:26:58;;;;;;;97.17;46.77;;;4.90;99.90;;;;;;10082194;29;20318;-79
2023/12/08 06:32:01;;;;;;;101.00;41.50;;;4.70;99.90;;;;;;10057415;29;20234;-79
2023/12/08 06:37:03;;;;;;;123.97;56.50;;;4.80;99.90;;;;;;10080211;29;20229;-79
2023/12/08 06:42:06;;;;;;;142.20;59.90;;;4.70;99.90;;;;;;10086549;29;20259;-79
2023/12/08 06:47:09;;;;;;;86.37;40.27;;;4.90;99.90;;;;;;10066624;29;20258;-79
2023/12/08 06:52:12;;;;;;;165.13;78.47;;;5.20;99.90;;;;;;10054568;29;20247;-79
2023/12/08 06:57:14;;;;;;;173.43;80.47;;;3.80;99.90;;;;;;10052235;29;20663;-79
2023/12/08 07:02:17;;;;;;;171.73;76.97;;;1.90;99.90;;;;;;10052005;29;20711;-79
2023/12/08 07:07:20;;;;;;;184.97;83.33;;;1.00;99.90;;;;;;10052658;29;20241;-81
2023/12/08 07:12:23;;;;;;;187.67;84.67;;;0.60;99.90;;;;;;10055454;29;20237;-79
2023/12/08 07:17:25;;;;;;;181.40;79.73;;;0.40;99.90;;;;;;10073183;29;20297;-80
2023/12/08 07:22:30;;;;;;;174.00;71.37;;;0.20;99.90;;;;;;10078574;29;20721;-80
2023/12/08 07:27:32;;;;;;;175.80;79.30;;;0.20;99.90;;;;;;10090807;29;20328;-80
2023/12/08 07:32:35;;;;;;;260.03;127.10;;;0.10;99.90;;;;;;10089126;29;20748;-80
2023/12/08 07:37:41;;;;;;;246.13;131.43;;;0.10;99.90;;;;;;10088747;29;20652;-79
2023/12/08 07:42:44;;;;;;;165.20;70.53;;;0.10;99.90;;;;;;10087667;29;20324;-79
2023/12/08 07:47:47;;;;;;;158.10;69.10;;;0.10;99.90;;;;;;10063713;29;20624;-79
2023/12/08 07:52:52;;;;;;;180.23;78.97;;;0.10;99.90;;;;;;10062467;29;20229;-80
2023/12/08 07:57:54;;;;;;;89.77;38.30;;;0.30;99.90;;;;;;10052300;29;20237;-80
2023/12/08 08:02:57;;;;;;;71.20;31.17;;;1.10;99.90;;;;;;10051755;29;20277;-80
2023/12/08 08:08:00;;;;;;;73.80;33.50;;;2.00;99.90;;;;;;10051150;29;20812;-80
2023/12/08 08:13:03;;;;;;;65.87;27.27;;;3.00;99.90;;;;;;10052574;29;20887;-80
2023/12/08 08:18:06;;;;;;;74.40;34.17;;;3.90;99.90;;;;;;10064498;29;20309;-80
2023/12/08 08:23:09;;;;;;;61.73;33.40;;;4.70;99.90;;;;;;10050291;29;20261;-80
2023/12/08 08:28:12;;;;;;;103.03;45.40;;;5.60;99.90;;;;;;10071170;29;20322;-80
2023/12/08 08:44:31;;;;;;;63.23;31.27;;;6.20;99.90;;;;;;9921006;23;10000515;-80
2023/12/08 08:49:33;;;;;;;74.57;35.10;;;5.90;99.90;;;;;;10172060;29;20700;-81
2023/12/08 08:54:36;;;;;;;69.40;34.10;;;5.50;99.90;;;;;;10172479;29;20717;-80
2023/12/08 08:59:38;;;;;;;71.53;33.70;;;5.20;99.90;;;;;;10171960;29;20648;-80
2023/12/08 09:04:41;;;;;;;74.03;34.47;;;5.40;99.90;;;;;;10172871;29;20263;-80
2023/12/08 09:09:43;;;;;;;76.60;34.73;;;5.50;99.90;;;;;;10172553;29;20697;-80
2023/12/08 09:14:46;;;;;;;73.63;36.73;;;5.90;99.90;;;;;;10171396;29;20247;-80
2023/12/08 09:19:48;;;;;;;51.70;27.83;;;5.50;99.90;;;;;;10172269;29;20358;-80
2023/12/08 09:24:51;;;;;;;54.60;22.27;;;5.60;99.90;;;;;;10172145;29;20256;-80
2023/12/08 09:29:55;;;;;;;58.17;30.40;;;6.10;99.90;;;;;;10171098;29;20234;-80
2023/12/08 09:34:57;;;;;;;59.70;30.27;;;6.30;99.90;;;;;;10170637;29;20254;-80
2023/12/08 09:40:00;;;;;;;71.13;34.27;;;6.60;99.90;;;;;;10170730;29;20245;-80
2023/12/08 09:45:06;;;;;;;78.10;35.87;;;6.10;99.90;;;;;;10170934;29;20257;-80
2023/12/08 09:50:10;;;;;;;53.57;27.87;;;6.20;99.90;;;;;;10171264;29;20244;-80
2023/12/08 09:55:12;;;;;;;72.30;34.40;;;6.50;99.90;;;;;;10170620;29;20244;-80
2023/12/08 10:00:16;;;;;;;60.87;27.60;;;5.30;99.90;;;;;;10169805;29;20235;-80
2023/12/08 10:05:20;;;;;;;67.37;29.50;;;6.30;99.90;;;;;;10169770;29;20660;-80
2023/12/08 10:10:24;;;;;;;77.60;37.83;;;6.70;99.90;;;;;;10170248;29;20313;-80
2023/12/08 10:15:26;;;;;;;78.43;34.37;;;6.90;99.90;;;;;;10170004;29;20242;-80
2023/12/08 10:20:29;;;;;;;65.63;32.13;;;6.90;99.90;;;;;;10169950;29;20281;-80
2023/12/08 10:25:32;;;;;;;62.80;27.90;;;6.70;99.90;;;;;;10168971;29;20268;-80
2023/12/08 10:30:34;;;;;;;80.43;41.33;;;6.50;99.90;;;;;;10167788;29;20713;-80
2023/12/08 10:35:38;;;;;;;70.47;34.43;;;6.10;99.90;;;;;;10168919;29;20264;-80
2023/12/08 10:40:49;;;;;;;61.37;28.33;;;6.20;99.90;;;;;;10168352;29;20315;-81
2023/12/08 10:45:52;;;;;;;79.00;38.67;;;6.50;99.90;;;;;;10168110;29;20306;-80
2023/12/08 10:50:56;;;;;;;65.57;30.43;;;6.40;99.90;;;;;;10167881;29;20236;-81
2023/12/08 10:56:02;;;;;;;78.43;37.93;;;6.30;99.90;;;;;;10168131;29;20246;-81
2023/12/08 11:01:12;;;;;;;82.20;37.23;;;6.10;99.90;;;;;;10165577;29;20269;-80
2023/12/08 11:06:22;;;;;;;91.40;48.97;;;6.10;99.90;;;;;;10166590;29;20721;-79
2023/12/08 11:11:26;;;;;;;71.67;34.47;;;4.50;99.90;;;;;;10168195;29;20259;-80
2023/12/08 11:16:50;;;;;;;88.97;39.23;;;3.80;99.90;;;;;;10166713;29;20231;-78
2023/12/08 11:21:53;;;;;;;78.90;31.70;;;5.60;99.90;;;;;;10168000;29;20295;-78
2023/12/08 11:27:12;;;;;;;89.93;44.67;;;6.00;99.90;;;;;;10166544;29;20268;-78
2023/12/08 11:32:20;;;;;;;67.20;30.40;;;6.30;99.90;;;;;;10167658;29;20232;-78
2023/12/08 11:37:22;;;;;;;73.33;32.60;;;6.50;99.90;;;;;;10167413;29;20295;-78
2023/12/08 11:42:25;;;;;;;73.83;34.97;;;6.80;99.90;;;;;;10165939;29;20267;-78
2023/12/08 11:47:30;;;;;;;89.50;44.57;;;7.00;99.90;;;;;;10165026;29;20256;-78
2023/12/08 11:52:36;;;;;;;79.30;39.37;;;7.10;99.90;;;;;;10167624;29;20242;-79
2023/12/08 11:57:52;;;;;;;73.03;31.83;;;7.10;99.90;;;;;;10167196;29;20717;-79
2023/12/08 12:02:57;;;;;;;94.10;42.40;;;7.20;99.90;;;;;;10169936;29;20241;-79
2023/12/08 12:07:59;;;;;;;79.37;37.47;;;6.90;99.90;;;;;;10175443;29;20681;-79
2023/12/08 12:13:08;;;;;;;113.67;51.90;;;6.70;99.90;;;;;;10174613;29;20242;-78
2023/12/08 12:18:12;;;;;;;133.13;61.80;;;6.90;99.90;;;;;;10175072;29;20230;-78
2023/12/08 12:23:16;;;;;;;145.37;68.60;;;6.70;99.90;;;;;;10174878;29;20250;-78
2023/12/08 12:28:21;;;;;;;70.83;31.90;;;6.80;99.90;;;;;;10174223;29;20254;-78
2023/12/08 12:33:24;;;;;;;67.17;29.00;;;6.80;99.90;;;;;;10173189;29;20249;-78
2023/12/08 12:38:26;;;;;;;86.07;40.67;;;7.00;99.90;;;;;;10174564;29;20694;-78
2023/12/08 12:43:29;;;;;;;68.27;33.57;;;6.90;99.90;;;;;;10173859;29;20268;-78
2023/12/08 12:48:32;;;;;;;77.13;38.73;;;6.90;99.90;;;;;;10174098;29;20237;-78
2023/12/08 12:53:45;;;;;;;92.13;45.40;;;6.70;99.90;;;;;;10173541;29;20230;-78
2023/12/08 12:59:07;;;;;;;86.27;40.20;;;6.50;99.90;;;;;;10172016;29;20253;-78
2023/12/08 13:04:10;;;;;;;66.20;31.47;;;6.20;99.90;;;;;;10171938;29;20272;-78
2023/12/08 13:09:26;;;;;;;86.50;45.27;;;5.90;99.90;;;;;;10173282;29;20259;-78
2023/12/08 13:14:28;;;;;;;78.60;37.33;;;5.90;99.90;;;;;;10172340;29;20251;-78
2023/12/08 13:19:34;;;;;;;88.40;44.37;;;5.90;99.90;;;;;;10171927;29;20235;-78
2023/12/08 13:24:37;;;;;;;77.93;36.50;;;5.70;99.90;;;;;;10171420;29;20267;-79
2023/12/08 13:29:43;;;;;;;84.43;41.33;;;5.60;99.90;;;;;;10171457;29;20230;-79
2023/12/08 13:34:45;;;;;;;85.00;40.33;;;5.60;99.90;;;;;;10171477;29;20270;-78
2023/12/08 13:39:48;;;;;;;48.30;23.70;;;5.50;99.90;;;;;;10171463;29;20248;-79
2023/12/08 13:44:51;;;;;;;74.73;38.20;;;5.70;99.90;;;;;;10171255;29;20309;-78
2023/12/08 13:49:53;;;;;;;75.33;34.97;;;5.80;99.90;;;;;;10171181;29;20666;-78
2023/12/08 13:54:57;;;;;;;103.83;51.40;;;5.50;99.90;;;;;;10171032;29;20295;-78
2023/12/08 13:59:59;;;;;;;85.43;43.77;;;5.20;99.90;;;;;;10170813;29;20238;-78
2023/12/08 14:05:03;;;;;;;91.73;47.13;;;5.40;99.90;;;;;;10170520;29;20334;-79
2023/12/08 14:10:08;;;;;;;48.17;25.33;;;4.80;99.90;;;;;;10169190;29;20302;-77
2023/12/08 14:15:10;;;;;;;109.10;49.30;;;4.80;99.90;;;;;;10167896;29;20244;-77
2023/12/08 14:20:13;;;;;;;98.53;48.80;;;5.00;99.90;;;;;;10170021;29;20303;-77
2023/12/08 14:25:15;;;;;;;104.87;49.17;;;4.60;99.90;;;;;;10168206;29;20263;-78
2023/12/08 14:30:18;;;;;;;90.47;44.27;;;4.40;99.90;;;;;;10168417;29;20241;-78
2023/12/08 14:35:21;;;;;;;108.40;49.43;;;4.30;99.90;;;;;;10168406;29;20232;-78
2023/12/08 14:40:32;;;;;;;91.63;43.43;;;4.30;99.90;;;;;;10167024;29;20265;-77
2023/12/08 14:45:36;;;;;;;84.37;40.63;;;4.70;99.90;;;;;;10167663;29;20320;-77
2023/12/08 14:50:52;;;;;;;88.20;39.73;;;5.80;99.90;;;;;;10610337;27;20553;-77
2023/12/08 14:55:55;;;;;;;83.53;39.27;;;5.90;99.90;;;;;;10592015;27;20281;-77
2023/12/08 15:01:02;;;;;;;77.27;38.60;;;5.90;99.90;;;;;;10565213;28;20237;-77
2023/12/08 15:06:05;;;;;;;80.33;39.13;;;6.00;99.90;;;;;;10549006;28;20236;-79
2023/12/08 15:11:09;;;;;;;55.37;27.27;;;6.10;99.90;;;;;;10566244;28;20230;-79
2023/12/08 15:16:11;;;;;;;70.10;33.63;;;6.70;99.90;;;;;;10555293;27;20637;-79
2023/12/08 15:21:20;;;;;;;63.23;34.83;;;6.90;99.90;;;;;;10574745;28;20235;-80
2023/12/08 15:26:24;;;;;;;81.63;45.40;;;6.80;99.90;;;;;;10565939;28;20248;-80
2023/12/08 15:31:26;;;;;;;74.63;45.33;;;4.50;99.90;;;;;;10566108;28;20678;-77
2023/12/08 15:36:29;;;;;;;80.57;39.63;;;2.80;99.90;;;;;;10569073;28;20286;-76
2023/12/08 15:41:32;;;;;;;78.27;41.67;;;1.80;99.90;;;;;;10566283;28;20245;-77
2023/12/08 15:46:36;;;;;;;86.30;44.53;;;1.40;99.90;;;;;;10590740;27;20414;-77
2023/12/08 15:51:44;;;;;;;86.57;45.57;;;1.00;99.90;;;;;;10594934;27;20277;-80
2023/12/08 15:56:46;;;;;;;21.20;10.30;;;1.00;99.90;;;;;;10603331;27;20232;-80
2023/12/08 16:01:56;;;;;;;46.80;21.43;;;1.80;99.90;;;;;;10560597;28;20221;-80
2023/12/08 16:07:00;;;;;;;65.70;31.70;;;3.70;99.90;;;;;;10579618;28;20277;-80
2023/12/08 16:12:03;;;;;;;51.40;25.80;;;4.90;99.90;;;;;;10579911;28;20274;-80
2023/12/08 16:17:06;;;;;;;60.40;31.07;;;5.20;99.90;;;;;;10579187;28;20237;-80
2023/12/08 16:22:09;;;;;;;70.53;35.90;;;5.40;99.90;;;;;;10577495;28;20685;-80
2023/12/08 16:27:12;;;;;;;58.10;29.70;;;5.20;99.90;;;;;;10578627;28;20300;-80
2023/12/08 16:32:14;;;;;;;63.20;30.10;;;5.30;99.90;;;;;;10578680;27;20229;-79
2023/12/08 16:37:17;;;;;;;51.93;23.03;;;5.70;99.90;;;;;;10559624;28;20466;-80
2023/12/08 16:42:19;;;;;;;61.00;32.67;;;6.00;99.90;;;;;;10578151;28;20244;-80
2023/12/08 16:47:22;;;;;;;64.03;34.47;;;6.00;99.90;;;;;;10577855;28;20738;-80
2023/12/08 16:52:24;;;;;;;49.53;26.20;;;5.90;99.90;;;;;;10576035;28;20685;-80
2023/12/08 16:57:27;;;;;;;53.93;28.20;;;5.90;99.90;;;;;;10577170;28;20261;-80
2023/12/08 17:02:30;;;;;;;48.70;23.63;;;6.10;99.90;;;;;;10559473;28;20678;-80
2023/12/08 17:07:34;;;;;;;56.67;28.13;;;6.10;99.90;;;;;;10577100;28;20741;-81
2023/12/08 17:12:37;;;;;;;41.83;20.60;;;6.00;99.90;;;;;;10575191;28;20892;-80
2023/12/08 17:17:41;;;;;;;58.47;32.10;;;6.40;99.90;;;;;;10576928;28;20260;-77
2023/12/08 17:22:44;;;;;;;51.33;27.13;;;6.60;99.90;;;;;;10576394;28;20768;-77
2023/12/08 17:27:46;;;;;;;95.80;47.33;;;6.50;99.90;;;;;;10575163;28;20260;-77
2023/12/08 17:32:49;;;;;;;70.20;37.77;;;6.60;99.90;;;;;;10575776;28;20260;-77
2023/12/08 17:37:52;;;;;;;47.20;26.80;;;6.30;99.90;;;;;;10573635;28;20297;-79
2023/12/08 17:42:55;;;;;;;86.90;46.47;;;6.10;99.90;;;;;;10575324;28;20671;-79
2023/12/08 17:47:58;;;;;;;81.77;43.60;;;6.20;99.90;;;;;;10575299;28;20269;-79
2023/12/08 17:53:00;;;;;;;62.97;34.43;;;5.90;99.90;;;;;;10574313;28;20227;-80
2023/12/08 17:58:03;;;;;;;59.53;33.00;;;5.90;99.90;;;;;;10574492;28;20244;-79
2023/12/08 18:03:06;;;;;;;61.27;36.67;;;5.90;99.90;;;;;;10574673;28;20240;-80
2023/12/08 18:08:08;;;;;;;48.30;29.80;;;5.60;99.90;;;;;;10574318;28;20263;-79
2023/12/08 18:13:13;;;;;;;44.03;24.47;;;5.90;99.90;;;;;;10574598;28;20244;-80
2023/12/08 18:18:15;;;;;;;43.97;24.40;;;5.70;99.90;;;;;;10573883;28;20241;-80
2023/12/08 18:23:18;;;;;;;56.73;27.63;;;5.90;99.90;;;;;;10573532;28;20700;-80
2023/12/08 18:28:21;;;;;;;57.73;31.00;;;6.00;99.90;;;;;;10573847;28;20311;-80
2023/12/08 18:33:43;;;;;;;48.07;23.87;;;5.70;99.90;;;;;;10574031;28;20646;-80
2023/12/08 18:38:46;;;;;;;41.03;22.07;;;5.70;99.90;;;;;;10573532;28;20243;-80
2023/12/08 18:49:24;;;;;;;83.83;43.67;;;6.00;99.90;;;;;;10335750;23;21062;-79
2023/12/08 18:54:26;;;;;;;108.47;57.93;;;6.10;99.90;;;;;;10431805;28;20286;-79
2023/12/08 18:59:30;;;;;;;50.70;27.00;;;6.20;99.90;;;;;;10407176;28;20236;-78
2023/12/08 19:04:33;;;;;;;52.60;25.07;;;5.70;99.90;;;;;;10406467;28;20290;-79
2023/12/08 19:09:36;;;;;;;97.83;46.00;;;5.40;99.90;;;;;;10406381;28;20265;-79
2023/12/08 19:14:38;;;;;;;73.80;36.77;;;5.80;99.90;;;;;;10406802;28;20292;-79
2023/12/08 19:19:41;;;;;;;65.80;31.40;;;5.80;99.90;;;;;;10405724;28;20267;-78
2023/12/08 19:24:43;;;;;;;109.53;56.93;;;5.60;99.90;;;;;;10407193;28;20295;-79
2023/12/08 19:29:46;;;;;;;54.00;29.27;;;5.90;99.90;;;;;;10406591;28;20265;-79
2023/12/08 19:34:48;;;;;;;57.60;30.77;;;5.70;99.90;;;;;;10410401;28;20277;-79
2023/12/08 19:39:51;;;;;;;50.77;25.87;;;5.40;99.90;;;;;;10414388;28;20297;-79
2023/12/08 19:44:53;;;;;;;51.03;26.37;;;5.70;99.90;;;;;;10414117;28;20324;-79
2023/12/08 19:49:56;;;;;;;55.97;34.50;;;5.80;99.90;;;;;;10413894;28;20672;-79
2023/12/08 19:54:58;;;;;;;64.03;37.20;;;5.90;99.90;;;;;;10414191;28;20734;-79
2023/12/08 20:00:01;;;;;;;81.37;47.33;;;6.20;99.90;;;;;;10440371;28;20281;-79
2023/12/08 20:05:13;;;;;;;121.97;73.37;;;3.40;99.90;;;;;;10412720;28;20258;-79
2023/12/08 20:10:16;;;;;;;88.07;46.73;;;1.80;99.90;;;;;;10419099;28;20375;-79
2023/12/08 20:15:18;;;;;;;71.47;36.93;;;1.60;99.90;;;;;;10424081;28;20227;-79
2023/12/08 20:20:30;;;;;;;40.53;20.77;;;3.20;99.90;;;;;;10416716;28;20230;-78
2023/12/08 20:25:33;;;;;;;61.70;33.17;;;4.40;99.90;;;;;;10435702;28;20644;-79
2023/12/08 20:30:35;;;;;;;55.47;30.07;;;5.40;99.90;;;;;;10453570;28;20326;-79
2023/12/08 20:35:38;;;;;;;65.87;33.60;;;5.70;99.90;;;;;;10446269;28;20240;-78
2023/12/08 20:40:40;;;;;;;57.87;30.23;;;5.70;99.90;;;;;;10415636;28;20284;-78
2023/12/08 20:45:46;;;;;;;73.30;45.00;;;6.00;99.90;;;;;;10411551;28;20622;-78
2023/12/08 20:50:48;;;;;;;72.83;37.30;;;5.80;99.90;;;;;;10411831;28;20261;-78
2023/12/08 20:55:51;;;;;;;43.60;22.57;;;5.90;99.90;;;;;;10408806;28;20227;-79
2023/12/08 21:00:53;;;;;;;68.73;35.87;;;6.20;99.90;;;;;;10414072;28;20240;-79
2023/12/08 21:05:56;;;;;;;62.83;38.13;;;5.60;99.90;;;;;;10410665;28;20292;-78
2023/12/08 21:10:59;;;;;;;70.17;37.40;;;5.40;99.90;;;;;;10062380;28;10000524;-78
2023/12/08 21:16:01;;;;;;;72.30;37.87;;;5.30;99.90;;;;;;10427698;28;20306;-78
2023/12/08 21:21:04;;;;;;;37.63;21.70;;;5.50;99.90;;;;;;10449720;28;20235;-78
2023/12/08 21:26:08;;;;;;;42.20;26.07;;;5.60;99.90;;;;;;10417164;28;20280;-78
2023/12/08 21:31:10;;;;;;;37.13;21.27;;;5.20;99.90;;;;;;10426888;28;20305;-78
2023/12/08 21:36:13;;;;;;;76.50;39.57;;;5.50;99.90;;;;;;10408311;28;20798;-78
2023/12/08 21:41:15;;;;;;;50.90;27.87;;;5.50;99.90;;;;;;10406650;28;20263;-78
2023/12/08 21:46:18;;;;;;;58.40;30.60;;;5.80;99.90;;;;;;10404690;28;20938;-79
2023/12/08 21:51:21;;;;;;;74.53;36.83;;;6.20;99.90;;;;;;10405875;28;20300;-79
2023/12/08 21:56:23;;;;;;;39.50;21.83;;;6.10;99.90;;;;;;10404161;28;20688;-78
2023/12/08 22:01:32;;;;;;;42.63;23.87;;;6.30;99.90;;;;;;10406003;28;20231;-78
2023/12/08 22:06:35;;;;;;;58.30;31.57;;;6.00;99.90;;;;;;10430897;28;20233;-78
2023/12/08 22:11:38;;;;;;;63.80;34.63;;;6.10;99.90;;;;;;10440150;28;20254;-78
2023/12/08 22:16:40;;;;;;;46.03;25.03;;;6.20;99.90;;;;;;10447050;28;20245;-79
2023/12/08 22:21:42;;;;;;;46.27;22.13;;;6.10;99.90;;;;;;10422543;28;20616;-79
2023/12/08 22:26:45;;;;;;;49.10;24.90;;;6.50;99.90;;;;;;10403917;28;20262;-79
2023/12/08 22:31:47;;;;;;;41.33;23.00;;;6.30;99.90;;;;;;10439604;28;20265;-79
2023/12/08 22:36:50;;;;;;;59.53;30.43;;;6.10;99.90;;;;;;10441958;28;20671;-79
2023/12/08 22:41:52;;;;;;;57.93;30.63;;;5.60;99.90;;;;;;10445709;28;20233;-79
2023/12/08 22:46:55;;;;;;;38.07;19.63;;;5.80;99.90;;;;;;10443808;28;20302;-79
2023/12/08 22:51:57;;;;;;;57.80;31.83;;;5.50;99.90;;;;;;10421129;28;20253;-79
2023/12/08 22:57:01;;;;;;;37.20;22.97;;;5.60;99.90;;;;;;10417210;28;20230;-79
2023/12/08 23:02:03;;;;;;;46.83;25.37;;;5.70;99.90;;;;;;10412447;28;20238;-79
2023/12/08 23:07:06;;;;;;;50.23;27.23;;;5.50;99.90;;;;;;10409409;28;20658;-79
2023/12/08 23:12:09;;;;;;;61.43;29.70;;;5.30;99.90;;;;;;10409946;28;21071;-80
2023/12/08 23:17:11;;;;;;;52.63;27.53;;;5.50;99.90;;;;;;10418054;28;20229;-79
2023/12/08 23:22:14;;;;;;;67.50;34.30;;;5.60;99.90;;;;;;10412782;28;20238;-80
2023/12/08 23:27:16;;;;;;;55.30;27.80;;;5.30;99.90;;;;;;10413643;28;20227;-79
2023/12/08 23:32:19;;;;;;;47.53;27.70;;;5.00;99.90;;;;;;10414175;28;20304;-79
2023/12/08 23:37:21;;;;;;;64.80;34.27;;;4.90;99.90;;;;;;10412858;28;20229;-79
2023/12/08 23:42:24;;;;;;;68.03;38.37;;;4.40;99.90;;;;;;10411385;28;20226;-79
2023/12/08 23:47:27;;;;;;;59.73;31.70;;;4.40;99.90;;;;;;10410513;28;20298;-79
2023/12/08 23:52:29;;;;;;;55.70;30.07;;;4.30;99.90;;;;;;10419889;28;20306;-79
2023/12/08 23:57:32;;;;;;;63.40;35.17;;;4.10;99.90;;;;;;10414282;28;20688;-79
